Terminal Aerodrome Forecast
Issued by NWS Tampa Bay Area, FL

Home | Current Version | Previous Version | Text Only | Print | Product List | Glossary On
Versions: 1 2 3 4 5 6 7 8 9 10 11 12 13 14 15 16 17 18 19 20 21
422
FTUS42 KTBW 241125
TAFTPA
TAF
KTPA 241125Z 2412/2512 28008KT P6SM BKN020 OVC040
     FM241400 28011KT P6SM BKN025 OVC040
     FM241700 28014G20KT P6SM BKN025 BKN040
     FM242000 28016G22KT P6SM SCT025 BKN040
     FM242300 28014G20KT P6SM FEW045 SCT060
     FM250300 29011KT P6SM FEW025 SCT110=

USA.gov is the U.S. government's official web portal to all federal, state and local government web resources and services.